ePrivacy and GPDR Cookie Consent by Cookie Consent
EmailTwitter


Observations de surface / Europe / LIRF (16242)

Régions: Québec | Canada | États-Unis | Europe | France | UK | Ailleurs
Station
Affichage
Infos & localisation pour LIRF (16242) | Aide pour décoder les METARs

Observations prises le 2021-04-10 à 22H50 UTC (LIRF)

Température: 12.0 Celsius

Point de rosée: 8.0 Celsius

Humidité relative: 77%

Vents: Sud-est à 17 km/h ou 9 noeuds.

Pression au niveau moyen de la mer: 102.10 kilopascals.

Observation METAR:

LIRF 102250Z 12009KT CAVOK 12/08 Q1021 NOSIG=